Time;durP1;ratioP1;P1;durP2;ratioP2;P2;SDS_P1;SDS_P2;PMS_P1;PMS_P2;Temp;Humidity;BMP_temperature;BMP_pressure;BME280_temperature;BME280_humidity;BME280_pressure;Samples;Min_cycle;Max_cycle;Signal;HPM_P1;HPM_P2
2021/12/06 00:01:15;;;;;;;9.23;5.50;;;4.30;99.90;;;;;;4961976;28;20770;-80
2021/12/06 00:03:47;;;;;;;8.57;6.50;;;4.40;99.90;;;;;;5001068;28;20458;-80
2021/12/06 00:06:15;;;;;;;7.33;6.57;;;4.40;99.90;;;;;;5000707;28;20630;-80
2021/12/06 00:09:02;;;;;;;6.57;4.87;;;4.40;99.90;;;;;;5000065;28;20431;-79
2021/12/06 00:11:29;;;;;;;8.00;6.37;;;4.40;99.90;;;;;;4977459;28;20535;-80
2021/12/06 00:13:55;;;;;;;11.50;6.90;;;4.40;99.90;;;;;;4963092;29;20418;-79
2021/12/06 00:16:25;;;;;;;7.47;6.90;;;4.40;99.90;;;;;;4972958;28;20420;-80
2021/12/06 00:18:53;;;;;;;5.87;5.33;;;4.40;99.90;;;;;;4989649;28;20193;-79
2021/12/06 00:21:28;;;;;;;7.63;6.53;;;4.50;99.90;;;;;;5026789;28;20504;-80
2021/12/06 00:23:55;;;;;;;15.57;6.60;;;4.50;99.90;;;;;;5011147;28;20427;-80
2021/12/06 00:26:25;;;;;;;6.80;5.40;;;4.50;99.90;;;;;;5010958;28;20469;-79
2021/12/06 00:28:57;;;;;;;9.60;6.60;;;4.40;99.90;;;;;;4964787;29;20437;-80
2021/12/06 00:31:31;;;;;;;12.17;6.20;;;4.40;99.90;;;;;;4945596;29;20428;-80
2021/12/06 00:34:03;;;;;;;6.93;5.30;;;4.40;99.90;;;;;;4946016;29;20390;-80
2021/12/06 00:36:33;;;;;;;8.93;6.50;;;4.30;99.90;;;;;;4945760;29;20475;-80
2021/12/06 00:39:03;;;;;;;12.57;5.93;;;4.30;99.90;;;;;;4944543;29;20416;-79
2021/12/06 00:41:33;;;;;;;10.83;5.67;;;4.20;99.90;;;;;;4929840;29;20419;-80
2021/12/06 00:44:07;;;;;;;11.40;7.10;;;4.30;99.90;;;;;;4945480;29;20430;-80
2021/12/06 00:46:38;;;;;;;9.80;6.00;;;4.30;99.90;;;;;;4929580;29;20438;-80
2021/12/06 00:49:06;;;;;;;8.77;6.17;;;4.20;99.90;;;;;;4929336;29;20433;-80
2021/12/06 00:51:33;;;;;;;10.53;6.70;;;4.10;99.90;;;;;;4946070;29;20522;-80
2021/12/06 00:53:59;;;;;;;10.90;7.13;;;4.10;99.90;;;;;;4930031;29;20402;-80
2021/12/06 00:56:48;;;;;;;11.17;6.83;;;4.00;99.90;;;;;;4912109;29;20403;-80
2021/12/06 00:59:14;;;;;;;8.83;6.83;;;4.00;99.90;;;;;;4952560;29;20390;-80
2021/12/06 01:01:40;;;;;;;6.60;5.87;;;4.00;99.90;;;;;;4977021;28;20791;-80
2021/12/06 01:04:09;;;;;;;8.17;6.07;;;4.00;99.90;;;;;;4988752;28;20214;-80
2021/12/06 01:06:36;;;;;;;9.10;6.70;;;4.00;99.90;;;;;;4989874;28;20384;-77
2021/12/06 01:09:02;;;;;;;6.67;6.13;;;3.80;99.90;;;;;;4973742;29;20463;-79
2021/12/06 01:11:28;;;;;;;12.40;7.10;;;3.80;99.90;;;;;;4959846;29;20412;-79
2021/12/06 01:13:55;;;;;;;11.03;7.63;;;3.70;99.90;;;;;;4979813;28;20453;-80
2021/12/06 01:16:25;;;;;;;8.40;6.27;;;3.80;99.90;;;;;;4963710;28;20410;-80
2021/12/06 01:19:00;;;;;;;7.53;6.03;;;3.80;99.90;;;;;;4966375;28;20286;-80
2021/12/06 01:21:42;;;;;;;10.80;6.80;;;3.80;99.90;;;;;;4943354;29;20437;-79
2021/12/06 01:24:13;;;;;;;9.70;6.83;;;3.70;99.90;;;;;;4925691;29;20394;-80
2021/12/06 01:29:44;;;;;;;9.57;5.47;;;3.60;99.90;;;;;;4946354;29;20599;-80
2021/12/06 01:32:26;;;;;;;9.07;8.13;;;3.70;99.90;;;;;;4961447;28;20388;-80
2021/12/06 01:40:20;;;;;;;7.37;6.67;;;3.80;99.90;;;;;;4982990;28;20412;-80
2021/12/06 01:42:48;;;;;;;11.73;6.10;;;3.80;99.90;;;;;;4972279;28;20412;-80
2021/12/06 01:45:17;;;;;;;7.13;6.43;;;3.90;99.90;;;;;;4972109;28;20390;-79
2021/12/06 01:47:43;;;;;;;6.53;5.90;;;3.80;99.90;;;;;;4968848;28;20457;-79
2021/12/06 01:50:15;;;;;;;9.63;6.27;;;3.90;99.90;;;;;;4969684;28;20851;-79
2021/12/06 01:52:46;;;;;;;21.53;6.60;;;3.90;99.90;;;;;;4948507;29;20418;-80
2021/12/06 01:55:35;;;;;;;6.50;5.90;;;3.80;99.90;;;;;;4951015;29;20414;-79
2021/12/06 01:58:08;;;;;;;13.00;6.50;;;3.80;99.90;;;;;;4950482;29;20433;-79
2021/12/06 02:00:46;;;;;;;8.90;7.03;;;3.70;99.90;;;;;;4951269;29;20447;-80
2021/12/06 02:03:12;;;;;;;8.60;5.70;;;3.60;99.90;;;;;;4933911;29;20912;-79
2021/12/06 02:05:41;;;;;;;7.77;5.97;;;3.50;99.90;;;;;;4950142;29;20389;-79
2021/12/06 02:08:12;;;;;;;7.63;7.03;;;3.50;99.90;;;;;;4936112;29;20525;-80
2021/12/06 02:10:38;;;;;;;12.10;7.63;;;3.50;99.90;;;;;;4935232;29;20404;-80
2021/12/06 02:13:07;;;;;;;9.10;6.30;;;3.40;99.90;;;;;;4935477;29;20390;-79
2021/12/06 02:15:45;;;;;;;9.33;6.30;;;3.50;99.90;;;;;;4934529;29;20436;-80
2021/12/06 02:18:29;;;;;;;14.10;6.57;;;3.50;99.90;;;;;;4946074;28;20460;-80
2021/12/06 02:21:19;;;;;;;8.13;6.77;;;3.50;99.90;;;;;;4961852;28;20445;-81
2021/12/06 02:23:47;;;;;;;7.00;5.50;;;3.40;99.90;;;;;;4987681;28;20465;-79
2021/12/06 02:26:15;;;;;;;18.43;5.70;;;3.40;99.90;;;;;;5005245;28;20412;-80
2021/12/06 02:28:46;;;;;;;6.77;5.70;;;3.30;99.90;;;;;;4987822;28;20457;-80
2021/12/06 02:31:14;;;;;;;7.43;6.50;;;3.30;99.90;;;;;;4963967;28;20384;-79
2021/12/06 02:34:02;;;;;;;6.07;5.53;;;3.20;99.90;;;;;;4995565;28;20420;-79
2021/12/06 02:36:29;;;;;;;11.60;6.23;;;3.10;99.90;;;;;;4941812;29;20383;-79
2021/12/06 02:38:56;;;;;;;8.03;6.53;;;3.20;99.90;;;;;;4941945;29;20366;-80
2021/12/06 02:41:22;;;;;;;6.93;6.27;;;3.20;99.90;;;;;;4934149;29;20433;-79
2021/12/06 02:43:54;;;;;;;12.40;6.43;;;3.10;99.90;;;;;;4975946;29;20483;-79
2021/12/06 02:46:21;;;;;;;6.17;5.33;;;3.10;99.90;;;;;;4928444;29;20467;-79
2021/12/06 02:48:52;;;;;;;8.00;5.83;;;3.00;99.90;;;;;;4897936;29;20512;-80
2021/12/06 02:51:21;;;;;;;13.33;6.27;;;2.90;99.90;;;;;;4916736;29;20403;-79
2021/12/06 02:53:49;;;;;;;9.57;5.33;;;3.00;99.90;;;;;;4899121;29;20462;-78
2021/12/06 02:59:07;;;;;;;8.70;6.20;;;3.10;99.90;;;;;;4912351;29;20414;-79
2021/12/06 03:01:40;;;;;;;19.30;8.03;;;3.10;99.90;;;;;;4897240;29;20425;-79
2021/12/06 03:04:08;;;;;;;6.83;5.70;;;3.10;99.90;;;;;;4895667;29;20425;-79
2021/12/06 03:06:35;;;;;;;14.13;6.63;;;3.10;99.90;;;;;;4891189;29;20525;-79
2021/12/06 03:09:10;;;;;;;10.67;6.50;;;3.00;99.90;;;;;;4875289;29;20440;-80
2021/12/06 03:11:41;;;;;;;16.53;6.73;;;3.00;99.90;;;;;;4875037;29;20493;-80
2021/12/06 03:14:11;;;;;;;10.40;5.87;;;3.10;99.90;;;;;;4891148;29;20762;-80
2021/12/06 03:16:42;;;;;;;5.70;5.10;;;3.10;99.90;;;;;;4911067;29;20773;-79
2021/12/06 03:19:13;;;;;;;8.40;6.33;;;3.10;99.90;;;;;;4949149;28;20412;-80
2021/12/06 03:21:45;;;;;;;6.70;6.07;;;3.10;99.90;;;;;;4967568;28;20463;-80
2021/12/06 03:24:11;;;;;;;6.40;4.93;;;3.10;99.90;;;;;;4967368;28;20410;-80
2021/12/06 03:26:40;;;;;;;8.63;6.03;;;3.10;99.90;;;;;;4968210;28;20414;-79
2021/12/06 03:29:07;;;;;;;9.30;5.67;;;3.10;99.90;;;;;;4959546;28;20438;-80
2021/12/06 03:31:36;;;;;;;6.20;5.60;;;3.10;99.90;;;;;;5002167;28;20404;-80
2021/12/06 03:34:06;;;;;;;9.33;5.50;;;3.10;99.90;;;;;;4986283;28;20403;-79
2021/12/06 03:36:54;;;;;;;6.97;5.43;;;3.10;99.90;;;;;;4982480;28;20388;-79
2021/12/06 03:39:28;;;;;;;12.40;8.37;;;3.20;99.90;;;;;;4926814;28;20551;-79
2021/12/06 03:42:03;;;;;;;7.07;6.17;;;3.20;99.90;;;;;;4924334;29;20442;-80
2021/12/06 03:44:31;;;;;;;7.83;6.07;;;3.20;99.90;;;;;;4894203;29;20464;-79
2021/12/06 03:47:09;;;;;;;7.73;5.80;;;3.20;99.90;;;;;;4872634;29;20400;-80
2021/12/06 03:49:36;;;;;;;7.40;6.33;;;3.20;99.90;;;;;;4870979;29;20466;-79
2021/12/06 03:52:02;;;;;;;6.80;5.40;;;3.10;99.90;;;;;;4901830;29;20392;-80
2021/12/06 03:54:29;;;;;;;6.80;4.90;;;3.20;99.90;;;;;;4887310;29;20418;-80
2021/12/06 03:56:56;;;;;;;6.43;5.67;;;3.20;99.90;;;;;;4903169;29;20793;-80
2021/12/06 03:59:23;;;;;;;7.20;5.80;;;3.20;99.90;;;;;;4887707;29;20495;-79
2021/12/06 04:01:52;;;;;;;9.87;5.90;;;3.20;99.90;;;;;;4913512;29;20393;-77
2021/12/06 04:04:20;;;;;;;8.63;5.20;;;3.20;99.90;;;;;;4892580;29;20436;-80
2021/12/06 04:06:47;;;;;;;7.27;5.50;;;3.10;99.90;;;;;;4900454;29;20393;-80
2021/12/06 04:09:16;;;;;;;7.07;6.50;;;3.10;99.90;;;;;;4904294;29;20815;-80
2021/12/06 04:11:44;;;;;;;6.97;5.40;;;3.10;99.90;;;;;;4904281;29;20482;-80
2021/12/06 04:14:14;;;;;;;6.33;5.60;;;3.20;99.90;;;;;;4889118;29;20456;-80
2021/12/06 04:16:40;;;;;;;6.90;4.30;;;3.20;99.90;;;;;;4924371;29;20506;-80
2021/12/06 04:19:08;;;;;;;8.93;6.60;;;3.20;99.90;;;;;;4939023;29;20434;-80
2021/12/06 04:21:36;;;;;;;6.90;6.17;;;3.10;99.90;;;;;;4927380;29;20442;-80
2021/12/06 04:24:03;;;;;;;6.10;5.50;;;3.10;99.90;;;;;;4927724;29;20390;-79
2021/12/06 04:26:29;;;;;;;5.83;5.27;;;3.10;99.90;;;;;;4928448;29;20390;-79
2021/12/06 04:29:02;;;;;;;7.07;6.00;;;3.00;99.90;;;;;;4925610;28;20468;-79
2021/12/06 04:31:35;;;;;;;6.10;5.47;;;3.00;99.90;;;;;;5033586;28;20377;-80
2021/12/06 04:34:04;;;;;;;11.00;5.40;;;2.90;99.90;;;;;;5005280;28;20400;-80
2021/12/06 04:36:31;;;;;;;8.80;5.87;;;2.90;99.90;;;;;;4962169;29;20418;-80
2021/12/06 04:38:57;;;;;;;9.10;6.07;;;3.00;99.90;;;;;;4930825;29;20187;-80
2021/12/06 04:41:23;;;;;;;11.53;6.43;;;2.90;99.90;;;;;;4930427;29;20405;-79
2021/12/06 04:43:50;;;;;;;5.57;5.10;;;2.50;99.90;;;;;;4931306;29;20394;-79
2021/12/06 04:46:17;;;;;;;6.67;4.63;;;2.60;99.90;;;;;;4922506;29;20437;-80
2021/12/06 04:48:43;;;;;;;10.77;5.20;;;2.80;99.90;;;;;;4876551;29;20494;-80
2021/12/06 04:51:09;;;;;;;8.27;6.40;;;3.00;99.90;;;;;;4909032;29;20383;-80
2021/12/06 04:53:37;;;;;;;6.17;5.57;;;3.00;99.90;;;;;;4908480;29;20606;-79
2021/12/06 04:56:18;;;;;;;10.17;5.40;;;3.10;99.90;;;;;;4879380;29;20460;-80
2021/12/06 04:58:54;;;;;;;6.10;5.17;;;2.90;99.90;;;;;;4890239;29;20846;-80
2021/12/06 05:01:29;;;;;;;6.13;5.53;;;3.00;99.90;;;;;;4849903;29;20428;-79
2021/12/06 05:04:00;;;;;;;7.90;5.37;;;3.10;99.90;;;;;;4835565;29;20412;-79
2021/12/06 05:06:33;;;;;;;10.10;6.80;;;3.10;99.90;;;;;;4871143;29;20407;-80
2021/12/06 05:09:08;;;;;;;9.80;6.10;;;3.20;99.90;;;;;;4905080;29;20432;-80
2021/12/06 05:11:41;;;;;;;7.13;6.47;;;3.20;99.90;;;;;;4890006;29;20394;-80
2021/12/06 05:14:11;;;;;;;9.13;6.50;;;3.30;99.90;;;;;;4925987;29;20382;-80
2021/12/06 05:16:40;;;;;;;6.07;5.47;;;3.20;99.90;;;;;;4922143;29;20520;-80
2021/12/06 05:19:13;;;;;;;7.23;5.40;;;3.20;99.90;;;;;;4965783;29;20403;-80
2021/12/06 05:21:39;;;;;;;5.73;5.17;;;3.20;99.90;;;;;;4946079;29;20442;-80
2021/12/06 05:24:07;;;;;;;8.33;6.47;;;3.30;99.90;;;;;;4931076;29;20750;-79
2021/12/06 05:26:34;;;;;;;7.00;5.77;;;3.20;99.90;;;;;;4965046;29;20469;-80
2021/12/06 05:29:01;;;;;;;15.60;5.53;;;3.00;99.90;;;;;;4938038;29;20435;-80
2021/12/06 05:31:28;;;;;;;10.37;7.23;;;3.10;99.90;;;;;;4928013;29;20391;-80
2021/12/06 05:34:07;;;;;;;7.57;6.80;;;3.10;99.90;;;;;;4927564;29;20487;-80
2021/12/06 05:36:33;;;;;;;7.90;7.20;;;3.10;99.90;;;;;;4912837;29;20412;-79
2021/12/06 05:38:59;;;;;;;9.30;6.03;;;3.20;99.90;;;;;;4931742;29;20403;-79
2021/12/06 05:41:25;;;;;;;7.87;5.93;;;3.20;99.90;;;;;;4942905;28;20191;-79
2021/12/06 05:43:52;;;;;;;7.67;5.73;;;3.10;99.90;;;;;;4936148;29;20524;-79
2021/12/06 05:46:22;;;;;;;6.73;6.00;;;3.00;99.90;;;;;;4936664;29;20282;-79
2021/12/06 05:48:48;;;;;;;10.10;5.83;;;3.00;99.90;;;;;;4932181;29;20455;-79
2021/12/06 05:51:14;;;;;;;8.00;6.97;;;2.90;99.90;;;;;;4935125;29;20446;-79
2021/12/06 05:53:40;;;;;;;7.00;5.63;;;2.90;99.90;;;;;;4934804;29;20176;-80
2021/12/06 05:56:06;;;;;;;8.17;6.97;;;3.10;99.90;;;;;;4949323;28;20711;-78
2021/12/06 05:58:38;;;;;;;6.60;5.27;;;3.00;99.90;;;;;;4955131;28;20219;-79
2021/12/06 06:01:09;;;;;;;10.23;7.03;;;3.10;99.90;;;;;;4983695;28;20396;-80
2021/12/06 06:03:38;;;;;;;7.93;6.70;;;3.20;99.90;;;;;;4956941;28;20456;-79
2021/12/06 06:06:04;;;;;;;8.03;6.50;;;3.20;99.90;;;;;;4999118;28;20808;-80
2021/12/06 06:08:29;;;;;;;8.03;6.07;;;3.20;99.90;;;;;;5026218;28;20236;-79
2021/12/06 06:11:01;;;;;;;7.97;4.83;;;3.20;99.90;;;;;;5027191;28;20153;-80
2021/12/06 06:13:27;;;;;;;7.13;5.73;;;3.30;99.90;;;;;;5009620;28;20434;-80
2021/12/06 06:15:55;;;;;;;7.83;5.03;;;3.30;99.90;;;;;;5009048;28;20425;-80
2021/12/06 06:18:22;;;;;;;8.20;4.70;;;3.30;99.90;;;;;;5022545;28;20189;-80
2021/12/06 06:20:52;;;;;;;7.33;6.63;;;3.30;99.90;;;;;;5005825;28;20863;-80
2021/12/06 06:23:18;;;;;;;7.47;6.40;;;3.20;99.90;;;;;;4990192;28;20782;-80
2021/12/06 06:25:45;;;;;;;8.13;7.33;;;3.30;99.90;;;;;;4968787;28;20399;-79
2021/12/06 06:28:15;;;;;;;6.13;5.23;;;3.00;99.90;;;;;;4970041;28;20490;-80
2021/12/06 06:30:41;;;;;;;8.17;6.47;;;2.90;99.90;;;;;;4954105;28;20500;-79
2021/12/06 06:33:08;;;;;;;6.53;5.93;;;3.00;99.90;;;;;;4942715;28;20406;-79
2021/12/06 06:35:34;;;;;;;8.63;5.90;;;3.10;99.90;;;;;;4965468;28;20396;-79
2021/12/06 06:38:00;;;;;;;9.53;6.57;;;3.20;99.90;;;;;;4957583;29;20506;-78
2021/12/06 06:40:26;;;;;;;9.40;5.77;;;3.20;99.90;;;;;;4967689;28;20464;-78
2021/12/06 06:42:52;;;;;;;5.83;5.20;;;3.20;99.90;;;;;;4947140;29;20409;-79
2021/12/06 06:45:20;;;;;;;11.30;6.90;;;3.20;99.90;;;;;;4956943;28;20623;-80
2021/12/06 06:47:48;;;;;;;11.07;6.77;;;3.20;99.90;;;;;;4948319;28;20206;-80
2021/12/06 06:50:17;;;;;;;7.10;5.50;;;3.20;99.90;;;;;;4984304;28;20423;-79
2021/12/06 06:52:46;;;;;;;9.13;6.53;;;2.90;99.90;;;;;;4988808;28;20446;-80
2021/12/06 06:55:13;;;;;;;8.90;6.50;;;3.00;99.90;;;;;;4976848;28;20460;-77
2021/12/06 06:57:45;;;;;;;13.50;7.00;;;3.10;99.90;;;;;;5009897;28;20372;-79
2021/12/06 07:00:22;;;;;;;12.53;7.30;;;3.00;99.90;;;;;;5000889;28;20399;-80
2021/12/06 07:02:52;;;;;;;7.00;6.30;;;3.00;99.90;;;;;;4993911;28;20416;-79
2021/12/06 07:05:22;;;;;;;8.90;8.00;;;3.10;99.90;;;;;;5011403;28;20407;-80
2021/12/06 07:07:49;;;;;;;16.17;8.40;;;3.10;99.90;;;;;;4998009;28;20538;-80
2021/12/06 07:10:18;;;;;;;9.63;5.87;;;3.10;99.90;;;;;;5012975;28;20390;-80
2021/12/06 07:12:47;;;;;;;13.10;8.07;;;3.10;99.90;;;;;;5024634;28;20438;-80
2021/12/06 07:15:17;;;;;;;13.40;7.47;;;3.10;99.90;;;;;;5008340;28;20407;-79
2021/12/06 07:17:45;;;;;;;8.27;6.37;;;2.80;99.90;;;;;;4976770;28;20436;-80
2021/12/06 07:20:22;;;;;;;8.10;6.60;;;2.50;99.90;;;;;;4990830;28;20379;-80
2021/12/06 07:22:51;;;;;;;7.50;6.80;;;2.50;99.90;;;;;;4991770;28;20475;-80
2021/12/06 07:25:19;;;;;;;8.47;7.67;;;2.70;99.90;;;;;;5009790;28;20579;-78
2021/12/06 07:28:07;;;;;;;8.90;7.47;;;3.00;99.90;;;;;;4994583;28;20468;-80
2021/12/06 07:30:35;;;;;;;22.77;7.17;;;3.10;99.90;;;;;;4983487;28;20905;-80
2021/12/06 07:33:01;;;;;;;10.20;7.17;;;2.80;99.90;;;;;;4959565;28;20450;-79
2021/12/06 07:35:29;;;;;;;12.80;7.20;;;2.90;99.90;;;;;;5003824;28;20384;-80
2021/12/06 07:37:56;;;;;;;12.83;8.27;;;3.10;99.90;;;;;;4991259;28;20446;-80
2021/12/06 07:40:32;;;;;;;10.57;6.70;;;3.20;99.90;;;;;;4982880;28;20439;-80
2021/12/06 07:43:01;;;;;;;12.90;7.20;;;3.20;99.90;;;;;;4960163;28;20410;-79
2021/12/06 07:45:29;;;;;;;16.10;10.27;;;2.90;99.90;;;;;;4907635;29;20518;-80
2021/12/06 07:47:54;;;;;;;17.90;9.63;;;3.00;99.90;;;;;;4909305;29;20579;-79
2021/12/06 07:50:29;;;;;;;10.30;6.73;;;3.10;99.90;;;;;;4920035;29;20396;-79
2021/12/06 07:52:57;;;;;;;15.97;8.77;;;3.30;99.90;;;;;;4935857;29;20433;-80
2021/12/06 07:55:27;;;;;;;12.40;6.60;;;3.30;99.90;;;;;;4920444;29;20952;-80
2021/12/06 07:57:56;;;;;;;13.07;8.20;;;3.20;99.90;;;;;;4945787;28;20410;-81
2021/12/06 08:00:26;;;;;;;12.23;8.43;;;3.30;99.90;;;;;;4982614;28;20439;-80
2021/12/06 08:02:59;;;;;;;9.07;7.43;;;3.50;99.90;;;;;;4962846;28;20952;-80
2021/12/06 08:05:30;;;;;;;9.83;6.00;;;3.50;99.90;;;;;;4961422;28;20461;-80
2021/12/06 08:08:04;;;;;;;8.37;6.37;;;3.60;99.90;;;;;;4945739;29;20512;-80
2021/12/06 08:10:37;;;;;;;10.40;8.23;;;3.50;99.90;;;;;;4943304;28;20510;-80
2021/12/06 08:13:04;;;;;;;11.97;7.33;;;3.60;99.90;;;;;;4959583;28;20435;-80
2021/12/06 08:15:31;;;;;;;8.57;6.70;;;3.70;99.90;;;;;;4978874;28;21081;-81
2021/12/06 08:18:00;;;;;;;11.07;7.93;;;3.70;99.90;;;;;;4961455;28;20446;-81
2021/12/06 08:20:27;;;;;;;15.70;9.03;;;3.70;99.90;;;;;;4947567;28;20449;-80
2021/12/06 08:22:57;;;;;;;6.83;6.20;;;3.70;99.90;;;;;;4908959;29;20446;-80
2021/12/06 08:25:23;;;;;;;7.63;6.90;;;3.50;99.90;;;;;;4914125;29;20429;-80
2021/12/06 08:27:49;;;;;;;11.60;8.30;;;3.20;99.90;;;;;;4930247;29;20987;-81
2021/12/06 08:30:22;;;;;;;9.93;7.70;;;3.40;99.90;;;;;;4944013;29;20419;-81
2021/12/06 08:33:12;;;;;;;12.43;7.30;;;3.10;99.90;;;;;;4928033;29;20403;-80
2021/12/06 08:35:46;;;;;;;11.40;8.47;;;3.40;99.90;;;;;;4905703;28;20425;-80
2021/12/06 08:38:16;;;;;;;11.57;8.40;;;3.60;99.90;;;;;;4932242;29;20414;-80
2021/12/06 08:41:05;;;;;;;14.20;7.97;;;3.40;99.90;;;;;;4947520;29;20468;-80
2021/12/06 08:43:39;;;;;;;16.83;10.30;;;3.10;99.90;;;;;;4924926;29;20415;-80
2021/12/06 08:46:13;;;;;;;12.47;8.93;;;3.10;99.90;;;;;;4901207;29;20416;-79
2021/12/06 08:48:43;;;;;;;13.30;9.27;;;2.80;99.90;;;;;;4901899;29;20466;-81
2021/12/06 08:51:22;;;;;;;12.77;9.77;;;3.10;99.90;;;;;;4895412;29;20735;-81
2021/12/06 08:53:54;;;;;;;12.90;9.20;;;3.10;99.90;;;;;;4892758;29;20761;-81
2021/12/06 08:56:21;;;;;;;11.23;8.97;;;2.80;99.90;;;;;;4913911;29;20487;-81
2021/12/06 08:58:50;;;;;;;10.40;8.23;;;2.60;99.90;;;;;;4891727;29;20444;-81
2021/12/06 09:01:21;;;;;;;19.77;10.73;;;3.00;99.90;;;;;;4891246;29;20408;-81
2021/12/06 09:03:51;;;;;;;12.73;8.70;;;3.30;99.90;;;;;;4887359;29;20944;-80
2021/12/06 09:06:17;;;;;;;15.87;8.97;;;3.40;99.90;;;;;;4892995;29;20507;-80
2021/12/06 09:08:44;;;;;;;15.80;8.27;;;3.30;99.90;;;;;;4870082;29;20476;-81
2021/12/06 09:11:11;;;;;;;7.40;6.63;;;3.00;99.90;;;;;;4877250;29;20416;-80
2021/12/06 09:13:39;;;;;;;10.50;6.10;;;3.10;99.90;;;;;;4902399;29;20482;-80
2021/12/06 09:16:12;;;;;;;8.23;7.00;;;3.20;99.90;;;;;;4884219;29;20441;-80
2021/12/06 09:18:41;;;;;;;6.87;5.73;;;3.30;99.90;;;;;;4892244;29;20416;-80
2021/12/06 09:21:12;;;;;;;9.77;6.77;;;3.40;99.90;;;;;;4888118;29;20452;-80
2021/12/06 09:23:46;;;;;;;9.33;7.00;;;3.10;99.90;;;;;;4916196;29;20437;-80
2021/12/06 09:26:13;;;;;;;44.00;22.87;;;3.20;99.90;;;;;;4951536;28;20434;-81
2021/12/06 09:28:44;;;;;;;16.80;11.43;;;3.50;99.90;;;;;;4966336;28;20445;-80
2021/12/06 09:31:21;;;;;;;7.43;6.67;;;3.80;99.90;;;;;;4945894;29;20492;-80
2021/12/06 09:34:04;;;;;;;9.50;7.00;;;4.00;99.90;;;;;;4945919;28;20493;-81
2021/12/06 09:36:33;;;;;;;7.70;6.97;;;4.10;99.90;;;;;;4931375;28;20412;-80
2021/12/06 09:39:04;;;;;;;8.97;8.00;;;4.10;99.90;;;;;;4965790;28;20936;-80
2021/12/06 09:41:32;;;;;;;9.00;6.97;;;4.20;99.90;;;;;;4957219;28;20440;-80
2021/12/06 09:44:04;;;;;;;7.97;7.03;;;4.10;99.90;;;;;;4947760;28;20450;-80
2021/12/06 09:47:03;;;;;;;7.53;6.57;;;4.00;99.90;;;;;;4946234;28;20434;-80
2021/12/06 09:49:33;;;;;;;11.43;6.43;;;4.00;99.90;;;;;;4950815;28;20491;-80
2021/12/06 09:52:07;;;;;;;7.00;6.30;;;4.10;99.90;;;;;;4945588;29;21071;-80
2021/12/06 09:54:37;;;;;;;6.53;5.83;;;4.20;99.90;;;;;;4942285;29;20442;-80
2021/12/06 09:57:07;;;;;;;9.83;8.60;;;4.20;99.90;;;;;;4979451;28;20486;-80
2021/12/06 09:59:39;;;;;;;12.20;8.90;;;4.20;99.90;;;;;;4935204;28;20515;-80
2021/12/06 10:02:26;;;;;;;7.60;6.90;;;4.20;99.90;;;;;;4922186;29;20451;-80
2021/12/06 10:04:55;;;;;;;8.87;7.13;;;4.40;99.90;;;;;;4897260;29;20880;-80
2021/12/06 10:07:24;;;;;;;9.83;7.80;;;4.40;99.90;;;;;;4874776;29;20425;-80
2021/12/06 10:09:51;;;;;;;10.90;7.47;;;4.30;99.90;;;;;;4874611;29;20544;-81
2021/12/06 10:12:18;;;;;;;12.47;8.20;;;3.90;99.90;;;;;;4888386;29;20845;-79
2021/12/06 10:14:45;;;;;;;8.67;6.80;;;3.90;99.90;;;;;;4882926;29;20944;-81
2021/12/06 10:17:15;;;;;;;10.27;7.97;;;3.70;99.90;;;;;;4894135;29;21351;-80
2021/12/06 10:19:42;;;;;;;11.30;8.63;;;3.90;99.90;;;;;;4901990;29;20994;-80
2021/12/06 10:22:08;;;;;;;13.73;8.13;;;3.90;99.90;;;;;;4950375;28;20801;-80
2021/12/06 10:24:34;;;;;;;10.57;9.07;;;3.70;99.90;;;;;;4952346;28;20492;-79
2021/12/06 10:27:04;;;;;;;11.10;8.83;;;3.20;99.90;;;;;;4950430;28;20414;-80
2021/12/06 10:29:38;;;;;;;9.87;7.30;;;3.40;99.90;;;;;;4950892;28;20579;-81
2021/12/06 10:32:11;;;;;;;13.40;9.00;;;3.20;99.90;;;;;;4949272;28;20443;-80
2021/12/06 10:34:37;;;;;;;12.83;9.03;;;3.20;99.90;;;;;;4972793;28;20416;-79
2021/12/06 10:37:03;;;;;;;9.93;8.37;;;3.10;99.90;;;;;;4989999;28;20391;-80
2021/12/06 10:39:36;;;;;;;11.30;7.87;;;3.20;99.90;;;;;;4973704;28;20414;-79
2021/12/06 10:42:02;;;;;;;9.77;8.77;;;3.10;99.90;;;;;;4995236;28;20213;-80
2021/12/06 10:44:27;;;;;;;15.63;8.60;;;3.00;99.90;;;;;;4989399;28;20450;-81
2021/12/06 10:46:53;;;;;;;11.60;7.73;;;3.20;99.90;;;;;;4985323;28;20186;-80
2021/12/06 10:49:24;;;;;;;14.37;8.10;;;3.10;99.90;;;;;;4989024;28;20221;-80
2021/12/06 10:51:51;;;;;;;13.67;8.67;;;3.00;99.90;;;;;;4994177;28;20558;-81
2021/12/06 10:54:27;;;;;;;13.20;9.30;;;2.80;99.90;;;;;;5031201;28;20400;-80
2021/12/06 10:56:59;;;;;;;14.40;8.40;;;3.00;99.90;;;;;;5010736;28;20413;-80
2021/12/06 10:59:29;;;;;;;14.23;9.10;;;3.00;99.90;;;;;;5030031;28;20421;-80
2021/12/06 11:01:57;;;;;;;15.93;9.73;;;3.00;99.90;;;;;;5030723;28;20406;-80
2021/12/06 11:04:27;;;;;;;9.60;8.07;;;3.30;99.90;;;;;;5027933;28;20435;-80
2021/12/06 11:06:58;;;;;;;13.57;8.90;;;3.20;99.90;;;;;;5028741;28;20431;-80
2021/12/06 11:09:27;;;;;;;10.43;8.03;;;3.20;99.90;;;;;;5029421;28;20501;-81
2021/12/06 11:11:57;;;;;;;12.70;8.83;;;3.20;99.90;;;;;;5035133;28;20455;-80
2021/12/06 11:14:29;;;;;;;10.03;9.07;;;3.10;99.90;;;;;;5040642;28;20554;-80
2021/12/06 11:17:00;;;;;;;10.30;9.23;;;3.40;99.90;;;;;;5037201;28;20434;-81
2021/12/06 11:19:29;;;;;;;12.17;9.50;;;3.60;99.90;;;;;;5038377;28;20405;-80
2021/12/06 11:22:00;;;;;;;14.40;9.20;;;3.30;99.90;;;;;;5027473;28;20446;-81
2021/12/06 11:24:39;;;;;;;10.53;8.30;;;3.50;99.90;;;;;;5030813;28;20722;-81
2021/12/06 11:27:11;;;;;;;11.43;9.00;;;3.70;99.90;;;;;;5015197;28;20398;-81
2021/12/06 11:29:44;;;;;;;17.87;8.50;;;3.40;99.90;;;;;;5033917;28;20421;-80
2021/12/06 11:32:23;;;;;;;13.87;8.80;;;3.50;99.90;;;;;;5032736;28;20430;-81
2021/12/06 11:34:57;;;;;;;11.53;8.07;;;3.70;99.90;;;;;;5030490;28;20434;-80
2021/12/06 11:37:29;;;;;;;14.47;8.83;;;3.70;99.90;;;;;;5036731;28;20501;-81
2021/12/06 11:40:08;;;;;;;10.63;8.60;;;3.80;99.90;;;;;;5029706;28;20406;-80
2021/12/06 11:42:53;;;;;;;12.17;8.90;;;3.70;99.90;;;;;;5029799;28;20389;-80
2021/12/06 11:45:32;;;;;;;13.20;9.40;;;4.20;99.90;;;;;;5005516;28;20702;-79
2021/12/06 11:48:05;;;;;;;13.37;10.40;;;5.40;99.90;;;;;;5027354;28;20441;-80
2021/12/06 11:50:32;;;;;;;16.70;9.93;;;5.10;99.90;;;;;;4987891;28;20410;-79
2021/12/06 11:53:04;;;;;;;14.18;11.32;;;5.60;99.90;;;;;;5022256;28;20469;-80
2021/12/06 11:55:30;;;;;;;11.20;9.23;;;6.40;99.90;;;;;;5026398;28;20251;-81
2021/12/06 11:57:56;;;;;;;15.97;9.03;;;5.30;99.90;;;;;;5025592;28;20402;-80
2021/12/06 12:00:24;;;;;;;14.20;8.87;;;4.50;99.90;;;;;;5028168;28;20985;-81
2021/12/06 12:02:56;;;;;;;9.27;7.40;;;4.50;99.90;;;;;;5031794;28;20173;-80
2021/12/06 12:05:33;;;;;;;12.37;7.90;;;4.40;99.90;;;;;;5033055;28;20436;-80
2021/12/06 12:08:07;;;;;;;9.00;7.70;;;4.60;99.90;;;;;;5029558;28;20431;-79
2021/12/06 12:10:48;;;;;;;12.00;8.57;;;4.70;99.90;;;;;;5032248;28;20461;-79
2021/12/06 12:13:36;;;;;;;9.70;7.03;;;4.60;99.90;;;;;;5025515;28;20391;-80
2021/12/06 12:16:07;;;;;;;9.30;8.03;;;4.80;99.90;;;;;;5026121;28;20463;-80
2021/12/06 12:18:36;;;;;;;13.90;9.17;;;5.00;99.90;;;;;;5029031;28;20505;-81
2021/12/06 12:21:03;;;;;;;9.67;7.40;;;5.10;99.90;;;;;;5034505;28;20420;-79
2021/12/06 12:23:32;;;;;;;16.20;7.80;;;5.80;99.90;;;;;;5035743;28;20442;-80
2021/12/06 12:26:06;;;;;;;17.47;9.20;;;5.40;99.90;;;;;;5028177;28;20447;-80
2021/12/06 12:28:58;;;;;;;10.37;8.77;;;5.70;99.90;;;;;;5026166;28;20789;-80
2021/12/06 12:31:23;;;;;;;9.00;8.07;;;5.80;99.90;;;;;;5028741;28;20538;-80
2021/12/06 12:33:50;;;;;;;11.67;8.40;;;5.50;99.90;;;;;;5042243;28;20439;-80
2021/12/06 12:36:19;;;;;;;15.00;9.77;;;5.80;99.90;;;;;;5046221;28;20423;-80
2021/12/06 12:38:47;;;;;;;8.93;7.53;;;6.30;99.90;;;;;;5041131;28;20416;-80
2021/12/06 12:41:17;;;;;;;13.60;9.40;;;6.20;99.90;;;;;;5042114;28;20445;-80
2021/12/06 12:43:47;;;;;;;13.60;6.80;;;5.90;99.90;;;;;;5026570;28;20410;-80
2021/12/06 12:46:17;;;;;;;16.13;8.10;;;5.00;99.90;;;;;;5024417;28;20978;-81
2021/12/06 12:48:51;;;;;;;11.07;8.17;;;4.70;99.90;;;;;;5031351;28;20778;-80
2021/12/06 12:51:24;;;;;;;8.67;7.67;;;4.50;99.90;;;;;;5027094;28;20423;-80
2021/12/06 12:54:16;;;;;;;13.50;7.67;;;4.30;99.90;;;;;;5023572;28;20473;-80
2021/12/06 12:56:53;;;;;;;10.27;6.77;;;4.30;99.90;;;;;;5024176;28;20394;-80
2021/12/06 12:59:24;;;;;;;9.80;7.57;;;4.60;99.90;;;;;;5021984;28;20423;-78
2021/12/06 13:02:12;;;;;;;7.37;6.63;;;4.40;99.90;;;;;;5024964;28;20465;-81
2021/12/06 13:05:11;;;;;;;11.40;9.63;;;4.60;99.90;;;;;;5026733;28;20846;-80
2021/12/06 13:07:59;;;;;;;10.13;9.10;;;4.60;99.90;;;;;;5015611;28;20435;-80
2021/12/06 13:10:43;;;;;;;12.50;7.60;;;4.70;99.90;;;;;;5026185;28;20479;-81
2021/12/06 13:13:20;;;;;;;10.00;7.60;;;4.30;99.90;;;;;;5021459;28;20870;-81
2021/12/06 13:16:11;;;;;;;15.83;8.70;;;4.40;99.90;;;;;;5025835;28;21039;-81
2021/12/06 13:18:57;;;;;;;13.70;7.73;;;4.30;99.90;;;;;;5026181;28;20434;-81
2021/12/06 13:21:46;;;;;;;9.83;7.63;;;4.30;99.90;;;;;;5021329;28;20522;-79
2021/12/06 13:24:33;;;;;;;17.13;8.60;;;4.50;99.90;;;;;;5040745;28;20533;-81